createdAt,value
2018-06-08T00:01:24.801Z,41.73
2018-06-08T00:04:06.421Z,42.57
2018-06-08T00:06:46.172Z,41.00
2018-06-08T00:09:16.424Z,40.50
2018-06-08T00:11:46.103Z,41.80
2018-06-08T00:14:17.569Z,41.37
2018-06-08T00:16:46.626Z,39.90
2018-06-08T00:19:16.433Z,42.73
2018-06-08T00:21:46.352Z,43.10
2018-06-08T00:24:17.083Z,44.03
2018-06-08T00:26:52.943Z,47.20
2018-06-08T00:29:23.893Z,42.40
2018-06-08T00:31:53.328Z,45.13
2018-06-08T00:34:23.044Z,43.47
2018-06-08T00:36:52.434Z,45.50
2018-06-08T00:39:21.542Z,40.40
2018-06-08T00:41:50.902Z,44.63
2018-06-08T00:44:20.101Z,44.00
2018-06-08T00:46:49.217Z,45.53
2018-06-08T00:49:18.775Z,43.70
2018-06-08T00:51:48.055Z,43.47
2018-06-08T00:54:18.237Z,42.47
2018-06-08T00:56:59.070Z,42.50
2018-06-08T00:59:29.636Z,46.23
2018-06-08T01:01:59.672Z,45.50
2018-06-08T01:04:29.471Z,44.53
2018-06-08T01:06:59.260Z,42.70
2018-06-08T01:09:31.526Z,43.50
2018-06-08T01:12:01.472Z,44.60
2018-06-08T01:14:33.424Z,48.43
2018-06-08T01:17:03.603Z,45.40
2018-06-08T01:19:38.555Z,49.40
2018-06-08T01:22:13.408Z,47.27
2018-06-08T01:24:50.879Z,47.57
2018-06-08T01:27:26.646Z,43.20
2018-06-08T01:29:56.219Z,45.13
2018-06-08T01:32:25.191Z,45.57
2018-06-08T01:34:54.523Z,47.27
2018-06-08T01:37:24.105Z,47.40
2018-06-08T01:39:53.357Z,49.10
2018-06-08T01:42:26.609Z,47.33
2018-06-08T01:44:55.929Z,49.63
2018-06-08T01:47:24.940Z,42.07
2018-06-08T01:49:56.404Z,51.27
2018-06-08T01:52:26.170Z,47.40
2018-06-08T01:55:09.234Z,46.70
2018-06-08T01:57:51.126Z,47.83
2018-06-08T02:00:43.124Z,46.03
2018-06-08T02:03:37.282Z,46.30
2018-06-08T02:06:21.897Z,49.00
2018-06-08T02:09:05.190Z,47.50
2018-06-08T02:11:57.868Z,48.93
2018-06-08T02:14:28.644Z,50.83
2018-06-08T02:17:10.733Z,48.80
2018-06-08T02:19:51.330Z,47.80
2018-06-08T02:22:20.015Z,47.93
2018-06-08T02:25:05.814Z,47.57
2018-06-08T02:27:45.916Z,50.20
2018-06-08T02:30:29.037Z,50.50
2018-06-08T02:33:05.164Z,52.47
2018-06-08T02:35:38.584Z,50.23
2018-06-08T02:38:22.007Z,45.50
2018-06-08T02:41:06.833Z,54.17
2018-06-08T02:43:37.412Z,50.20
2018-06-08T02:46:06.424Z,48.43
2018-06-08T02:48:35.953Z,53.37
2018-06-08T02:51:06.435Z,48.70
2018-06-08T02:53:46.664Z,50.30
2018-06-08T02:56:16.441Z,51.43
2018-06-08T02:58:45.859Z,52.37
2018-06-08T03:01:15.765Z,54.03
2018-06-08T03:03:45.262Z,55.03
2018-06-08T03:06:14.563Z,57.87
2018-06-08T03:08:57.155Z,56.73
2018-06-08T03:11:37.195Z,55.53
2018-06-08T03:14:16.475Z,56.10
2018-06-08T03:16:56.442Z,53.00
2018-06-08T03:19:34.556Z,53.73
2018-06-08T03:22:13.469Z,54.63
2018-06-08T03:24:48.726Z,55.40
2018-06-08T03:27:18.594Z,53.27
2018-06-08T03:29:56.540Z,51.93
2018-06-08T03:32:25.966Z,49.53
2018-06-08T03:34:55.570Z,48.53
2018-06-08T03:37:25.944Z,48.53
2018-06-08T03:40:02.418Z,52.10
2018-06-08T03:42:32.922Z,50.00
2018-06-08T03:45:02.608Z,48.67
2018-06-08T03:47:36.712Z,52.70
2018-06-08T03:50:08.461Z,53.33
2018-06-08T03:52:38.044Z,53.53
2018-06-08T03:55:09.615Z,54.83
2018-06-08T03:57:40.245Z,53.03
2018-06-08T04:00:21.758Z,61.23
2018-06-08T04:03:07.944Z,58.67
2018-06-08T04:05:51.252Z,58.30
2018-06-08T04:08:21.004Z,58.10
2018-06-08T04:11:02.816Z,60.70
2018-06-08T04:13:33.632Z,59.73
2018-06-08T04:16:15.599Z,58.43
2018-06-08T04:18:46.424Z,59.67
2018-06-08T04:21:15.655Z,59.83
2018-06-08T04:26:44.743Z,64.20
2018-06-08T04:29:21.443Z,65.87
2018-06-08T04:31:59.835Z,68.13
2018-06-08T04:34:29.398Z,72.17
2018-06-08T04:36:59.440Z,68.07
2018-06-08T04:39:37.230Z,70.27
2018-06-08T04:42:11.009Z,72.50
2018-06-08T04:44:40.652Z,72.93
2018-06-08T04:47:09.928Z,72.67
2018-06-08T04:49:39.164Z,71.73
2018-06-08T04:52:17.353Z,72.27
2018-06-08T04:54:47.663Z,74.23
2018-06-08T04:57:18.175Z,71.83
2018-06-08T04:59:48.295Z,75.53
2018-06-08T05:02:22.564Z,71.93
2018-06-08T05:04:52.418Z,68.77
2018-06-08T05:07:22.336Z,70.00
2018-06-08T05:09:51.730Z,71.17
2018-06-08T05:12:56.117Z,69.10
2018-06-08T05:15:25.616Z,70.27
2018-06-08T05:17:55.433Z,71.23
2018-06-08T05:20:24.761Z,68.27
2018-06-08T05:22:56.829Z,67.20
2018-06-08T05:25:26.923Z,68.57
2018-06-08T05:27:56.241Z,72.10
2018-06-08T05:30:33.804Z,67.03
2018-06-08T05:33:04.085Z,61.50
2018-06-08T05:35:34.117Z,69.60
2018-06-08T05:38:03.672Z,65.03
2018-06-08T05:40:32.521Z,70.57
2018-06-08T05:43:11.214Z,64.00
2018-06-08T05:45:51.008Z,66.30
2018-06-08T05:48:21.532Z,61.23
2018-06-08T05:50:53.510Z,62.67
2018-06-08T05:53:22.973Z,62.27
2018-06-08T05:55:55.975Z,59.90
2018-06-08T05:58:26.103Z,63.63
2018-06-08T06:00:58.510Z,60.60
2018-06-08T06:03:28.059Z,64.87
2018-06-08T06:05:57.679Z,58.50
2018-06-08T06:08:26.852Z,56.93
2018-06-08T06:10:56.118Z,59.80
2018-06-08T06:13:25.544Z,49.50
2018-06-08T06:15:54.910Z,47.93
2018-06-08T06:18:24.921Z,52.10
2018-06-08T06:20:54.439Z,58.37
2018-06-08T06:23:23.823Z,52.57
2018-06-08T06:25:53.188Z,53.20
2018-06-08T06:28:22.393Z,42.70
2018-06-08T06:30:51.417Z,37.20
2018-06-08T06:33:20.683Z,42.73
2018-06-08T06:35:50.264Z,37.07
2018-06-08T06:38:19.394Z,35.47
2018-06-08T06:40:48.439Z,38.43
2018-06-08T06:43:25.031Z,41.67
2018-06-08T06:45:54.391Z,44.17
2018-06-08T06:48:24.441Z,41.20
2018-06-08T06:50:54.180Z,43.53
2018-06-08T06:53:23.921Z,45.07
2018-06-08T06:55:53.330Z,42.97
2018-06-08T06:58:22.340Z,46.10
2018-06-08T07:00:51.992Z,44.10
2018-06-08T07:03:21.203Z,43.53
2018-06-08T07:05:50.654Z,42.77
2018-06-08T07:08:20.018Z,42.83
2018-06-08T07:10:49.431Z,43.27
2018-06-08T07:13:19.010Z,46.40
2018-06-08T07:15:48.330Z,43.37
2018-06-08T07:18:17.848Z,40.97
2018-06-08T07:20:47.032Z,42.20
2018-06-08T07:23:16.406Z,38.97
2018-06-08T07:25:46.486Z,40.70
2018-06-08T07:28:15.527Z,42.67
2018-06-08T07:30:45.225Z,40.33
2018-06-08T07:33:16.685Z,38.90
2018-06-08T07:35:47.690Z,41.97
2018-06-08T07:38:17.737Z,37.67
2018-06-08T07:40:47.088Z,38.23
2018-06-08T07:43:16.803Z,34.90
2018-06-08T07:45:52.118Z,36.00
2018-06-08T07:48:22.006Z,34.90
2018-06-08T07:50:51.738Z,36.00
2018-06-08T07:53:21.742Z,34.03
2018-06-08T07:55:51.024Z,34.40
2018-06-08T07:58:21.867Z,31.30
2018-06-08T08:00:52.680Z,37.27
2018-06-08T08:03:22.252Z,32.80
2018-06-08T08:05:51.584Z,30.77
2018-06-08T08:08:21.133Z,30.67
2018-06-08T08:10:50.397Z,30.90
2018-06-08T08:13:19.973Z,30.07
2018-06-08T08:15:49.466Z,30.90
2018-06-08T08:19:48.099Z,26.40
2018-06-08T08:22:17.560Z,30.83
2018-06-08T08:24:47.394Z,30.67
2018-06-08T08:27:18.659Z,28.83
2018-06-08T08:29:49.429Z,29.30
2018-06-08T08:32:18.903Z,30.93
2018-06-08T08:34:48.580Z,31.03
2018-06-08T08:37:18.431Z,31.40
2018-06-08T08:39:47.528Z,30.73
2018-06-08T08:42:17.315Z,29.83
2018-06-08T08:44:55.685Z,29.77
2018-06-08T08:47:25.239Z,31.57
2018-06-08T08:49:54.719Z,31.93
2018-06-08T08:52:24.095Z,34.87
2018-06-08T08:54:54.343Z,37.70
2018-06-08T08:57:24.262Z,42.70
2018-06-08T08:59:53.863Z,48.60
2018-06-08T09:02:23.552Z,47.50
2018-06-08T09:04:52.939Z,47.80
2018-06-08T09:07:26.551Z,53.60
2018-06-08T09:09:59.969Z,51.00
2018-06-08T09:12:31.458Z,48.77
2018-06-08T09:15:00.835Z,54.73
2018-06-08T09:17:35.179Z,54.00
2018-06-08T09:20:04.759Z,53.53
2018-06-08T09:22:34.368Z,53.20
2018-06-08T09:25:04.435Z,50.90
2018-06-08T09:27:33.654Z,49.57
2018-06-08T09:30:03.095Z,53.47
2018-06-08T09:32:32.340Z,49.87
2018-06-08T09:35:06.052Z,50.50
2018-06-08T09:37:36.083Z,52.97
2018-06-08T09:40:05.811Z,47.83
2018-06-08T09:42:35.379Z,46.10
2018-06-08T09:45:05.364Z,49.60
2018-06-08T09:47:34.801Z,52.83
2018-06-08T09:50:04.967Z,50.97
2018-06-08T09:52:35.858Z,51.17
2018-06-08T09:55:10.516Z,48.73
2018-06-08T09:57:46.427Z,49.83
2018-06-08T10:00:51.546Z,51.87
2018-06-08T10:03:21.180Z,54.97
2018-06-08T10:10:31.003Z,56.43
2018-06-08T10:13:00.779Z,47.63
2018-06-08T10:15:30.426Z,53.17
2018-06-08T10:18:00.036Z,54.00
2018-06-08T10:20:31.397Z,53.10
2018-06-08T10:23:05.797Z,51.70
2018-06-08T10:25:41.851Z,54.53
2018-06-08T10:28:14.271Z,49.90
2018-06-08T10:30:43.981Z,51.53
2018-06-08T10:33:15.026Z,54.17
2018-06-08T10:35:47.792Z,59.90
2018-06-08T10:38:17.047Z,55.53
2018-06-08T10:40:48.516Z,55.67
2018-06-08T10:43:23.595Z,53.80
2018-06-08T10:46:04.728Z,50.67
2018-06-08T10:48:40.747Z,49.13
2018-06-08T10:51:21.679Z,45.90
2018-06-08T10:54:00.740Z,46.93
2018-06-08T10:56:39.234Z,42.33
2018-06-08T10:59:21.441Z,41.73
2018-06-08T11:01:58.747Z,42.93
2018-06-08T11:04:33.497Z,44.90
2018-06-08T11:07:03.052Z,49.80
2018-06-08T11:09:32.417Z,44.60
2018-06-08T11:12:05.540Z,44.87
2018-06-08T11:14:39.247Z,45.87
2018-06-08T11:17:10.737Z,52.33
2018-06-08T11:19:41.362Z,49.27
2018-06-08T11:22:11.342Z,53.00
2018-06-08T11:24:41.114Z,46.30
2018-06-08T11:27:10.351Z,53.53
2018-06-08T11:29:39.942Z,47.23
2018-06-08T11:32:09.795Z,42.50
2018-06-08T11:34:40.195Z,39.90
2018-06-08T11:37:10.141Z,41.03
2018-06-08T11:39:41.073Z,44.10
2018-06-08T11:42:11.525Z,41.23
2018-06-08T11:44:41.183Z,35.00
2018-06-08T11:47:15.934Z,38.27
2018-06-08T11:49:49.110Z,38.37
2018-06-08T11:52:21.530Z,50.43
2018-06-08T11:54:52.090Z,37.27
2018-06-08T11:57:21.715Z,35.70
2018-06-08T11:59:54.258Z,33.80
2018-06-08T12:02:27.900Z,33.17
2018-06-08T12:05:13.805Z,34.53
2018-06-08T12:07:52.630Z,31.90
2018-06-08T12:10:29.164Z,29.10
2018-06-08T12:13:05.323Z,29.50
2018-06-08T12:15:38.837Z,34.23
2018-06-08T12:18:11.806Z,26.03
2018-06-08T12:20:42.782Z,28.33
2018-06-08T12:23:25.421Z,38.23
2018-06-08T12:25:59.469Z,26.40
2018-06-08T12:28:32.030Z,23.07
2018-06-08T12:31:04.861Z,25.00
2018-06-08T12:33:36.286Z,24.67
2018-06-08T12:36:13.542Z,23.10
2018-06-08T12:40:14.978Z,32.73
2018-06-08T12:42:54.797Z,25.20
2018-06-08T12:45:25.742Z,21.00
2018-06-08T12:47:56.599Z,21.33
2018-06-08T12:50:29.186Z,20.20
2018-06-08T12:53:07.853Z,20.97
2018-06-08T12:55:45.263Z,19.57
2018-06-08T12:58:16.313Z,20.93
2018-06-08T13:00:48.062Z,22.70
2018-06-08T13:03:19.215Z,22.33
2018-06-08T13:05:55.816Z,21.53
2018-06-08T13:08:35.078Z,22.57
2018-06-08T13:11:09.373Z,25.47
2018-06-08T13:13:48.907Z,25.70
2018-06-08T13:16:20.736Z,23.80
2018-06-08T13:19:04.918Z,27.50
2018-06-08T13:21:34.805Z,27.73
2018-06-08T13:24:10.354Z,26.93
2018-06-08T13:26:41.990Z,31.40
2018-06-08T13:29:13.924Z,30.13
2018-06-08T13:33:13.262Z,30.67
2018-06-08T13:35:55.216Z,30.40
2018-06-08T13:38:32.311Z,30.47
2018-06-08T13:41:06.796Z,29.20
2018-06-08T13:43:37.983Z,36.03
2018-06-08T13:46:21.837Z,47.27
2018-06-08T13:48:53.312Z,36.13
2018-06-08T13:51:25.033Z,40.93
2018-06-08T13:53:58.212Z,38.40
2018-06-08T13:56:28.572Z,38.63
2018-06-08T13:59:01.950Z,35.43
2018-06-08T14:01:32.237Z,33.80
2018-06-08T14:04:01.828Z,36.50
2018-06-08T14:06:38.827Z,38.33
2018-06-08T14:09:12.391Z,38.57
2018-06-08T14:11:46.496Z,38.47
2018-06-08T14:14:17.386Z,46.57
2018-06-08T14:16:48.059Z,40.93
2018-06-08T14:19:17.636Z,40.33
2018-06-08T14:21:49.207Z,43.40
2018-06-08T14:24:35.164Z,43.60
2018-06-08T14:30:03.267Z,42.57
2018-06-08T14:32:55.302Z,39.47
2018-06-08T14:35:25.060Z,40.13
2018-06-08T14:38:07.066Z,36.17
2018-06-08T14:43:54.192Z,40.93
2018-06-08T14:46:36.833Z,40.20
2018-06-08T14:49:08.845Z,42.17
2018-06-08T14:51:48.021Z,44.37
2018-06-08T14:54:17.670Z,42.30
2018-06-08T14:56:50.472Z,41.37
2018-06-08T14:59:20.139Z,38.83
2018-06-08T15:01:49.498Z,38.00
2018-06-08T15:04:20.991Z,39.93
2018-06-08T15:06:50.714Z,39.23
2018-06-08T15:09:22.356Z,40.97
2018-06-08T15:11:53.308Z,39.87
2018-06-08T15:14:22.902Z,40.53
2018-06-08T15:16:58.339Z,42.40
2018-06-08T15:19:28.955Z,39.83
2018-06-08T15:21:58.373Z,40.70
2018-06-08T15:24:29.448Z,44.23
2018-06-08T15:26:58.859Z,40.23
2018-06-08T15:29:42.950Z,41.90
2018-06-08T15:32:13.772Z,41.73
2018-06-08T15:34:44.504Z,41.30
2018-06-08T15:37:22.832Z,40.10
2018-06-08T15:39:52.707Z,38.37
2018-06-08T15:42:24.425Z,40.27
2018-06-08T15:44:53.733Z,38.30
2018-06-08T15:47:23.239Z,38.67
2018-06-08T15:53:43.911Z,36.50
2018-06-08T15:56:19.134Z,39.33
2018-06-08T15:58:48.415Z,44.60
2018-06-08T16:01:19.091Z,44.53
2018-06-08T16:03:50.680Z,44.20
2018-06-08T16:06:46.084Z,43.90
2018-06-08T16:09:30.243Z,45.50
2018-06-08T16:12:02.145Z,41.50
2018-06-08T16:14:38.473Z,49.67
2018-06-08T16:17:11.325Z,52.10
2018-06-08T16:19:48.859Z,45.03
2018-06-08T16:22:20.016Z,45.17
2018-06-08T16:25:03.373Z,46.60
2018-06-08T16:27:35.235Z,51.10
2018-06-08T16:30:07.430Z,50.80
2018-06-08T16:35:38.446Z,47.97
2018-06-08T16:38:15.086Z,51.20
2018-06-08T16:40:50.558Z,50.93
2018-06-08T16:43:29.770Z,55.07
2018-06-08T16:48:47.855Z,57.80
2018-06-08T16:51:21.314Z,54.97
2018-06-08T16:53:51.452Z,59.57
2018-06-08T16:56:21.082Z,56.00
2018-06-08T16:58:53.973Z,60.50
2018-06-08T17:01:30.465Z,60.40
2018-06-08T17:04:01.668Z,60.37
2018-06-08T17:06:33.801Z,65.30
2018-06-08T17:09:23.389Z,56.90
2018-06-08T17:11:53.846Z,61.40
2018-06-08T17:14:27.929Z,61.47
2018-06-08T17:20:06.068Z,61.57
2018-06-08T17:22:40.260Z,70.23
2018-06-08T17:26:48.847Z,68.10
2018-06-08T17:29:41.392Z,61.93
2018-06-08T17:32:30.755Z,58.50
2018-06-08T17:35:02.615Z,64.30
2018-06-08T17:37:38.610Z,67.73
2018-06-08T17:40:21.353Z,71.00
2018-06-08T17:42:53.941Z,63.93
2018-06-08T17:45:24.488Z,60.13
2018-06-08T17:47:56.751Z,58.80
2018-06-08T17:50:27.710Z,59.43
2018-06-08T17:52:57.796Z,58.97
2018-06-08T17:55:35.714Z,62.10
2018-06-08T17:58:06.454Z,66.10
2018-06-08T18:00:43.971Z,66.63
2018-06-08T18:03:13.615Z,77.17
2018-06-08T18:05:44.609Z,65.00
2018-06-08T18:08:25.311Z,63.83
2018-06-08T18:10:59.610Z,69.03
2018-06-08T18:13:38.902Z,72.37
2018-06-08T18:16:12.788Z,67.20
2018-06-08T18:18:42.949Z,73.57
2018-06-08T18:21:14.323Z,68.63
2018-06-08T18:23:47.448Z,79.57
2018-06-08T18:26:17.844Z,72.37
2018-06-08T18:28:52.389Z,77.07
2018-06-08T18:31:23.423Z,82.50
2018-06-08T18:33:55.530Z,71.20
2018-06-08T18:36:27.636Z,76.97
2018-06-08T18:39:00.989Z,83.13
2018-06-08T18:41:31.954Z,76.57
2018-06-08T18:44:02.048Z,78.90
2018-06-08T18:46:32.391Z,98.37
2018-06-08T18:49:04.030Z,104.70
2018-06-08T18:51:34.345Z,123.70
2018-06-08T18:54:17.202Z,115.50
2018-06-08T18:57:13.083Z,97.07
2018-06-08T18:59:54.159Z,84.73
2018-06-08T19:02:36.133Z,88.10
2018-06-08T19:05:16.253Z,101.73
2018-06-08T19:07:55.761Z,85.97
2018-06-08T19:10:29.928Z,94.50
2018-06-08T19:13:02.166Z,106.03
2018-06-08T19:15:45.840Z,91.60
2018-06-08T19:18:32.524Z,93.20
2018-06-08T19:21:16.185Z,87.80
2018-06-08T19:23:54.100Z,92.43
2018-06-08T19:26:27.582Z,99.20
2018-06-08T19:29:06.093Z,152.97
2018-06-08T19:31:57.168Z,87.97
2018-06-08T19:34:46.231Z,88.57
2018-06-08T19:37:24.216Z,95.17
2018-06-08T19:39:54.437Z,97.80
2018-06-08T19:42:28.338Z,94.77
2018-06-08T19:45:10.165Z,100.77
2018-06-08T19:48:01.765Z,100.87
2018-06-08T19:50:42.562Z,96.57
2018-06-08T19:53:31.653Z,113.37
2018-06-08T19:56:17.588Z,126.57
2018-06-08T19:59:08.375Z,88.80
2018-06-08T20:01:58.125Z,88.90
2018-06-08T20:04:30.524Z,116.37
2018-06-08T20:07:19.971Z,112.63
2018-06-08T20:09:56.603Z,95.80
2018-06-08T20:12:44.104Z,122.67
2018-06-08T20:15:22.845Z,115.03
2018-06-08T20:17:56.262Z,104.43
2018-06-08T20:20:46.308Z,104.17
2018-06-08T20:23:27.378Z,101.77
2018-06-08T20:26:06.489Z,132.30
2018-06-08T20:29:00.252Z,105.70
2018-06-08T20:31:51.262Z,124.90
2018-06-08T20:34:40.566Z,168.33
2018-06-08T20:37:20.640Z,88.50
2018-06-08T20:40:00.768Z,93.80
2018-06-08T20:42:32.935Z,92.23
2018-06-08T20:45:07.454Z,86.43
2018-06-08T20:48:05.704Z,99.03
2018-06-08T20:51:06.852Z,138.50
2018-06-08T20:53:58.757Z,208.53
2018-06-08T20:56:45.318Z,122.60
2018-06-08T20:59:23.503Z,95.30
2018-06-08T21:05:11.777Z,203.33
2018-06-08T21:07:54.425Z,92.60
2018-06-08T21:11:05.698Z,117.13
2018-06-08T21:13:58.238Z,95.10
2018-06-08T21:17:13.571Z,79.77
2018-06-08T21:19:45.076Z,82.03
2018-06-08T21:22:16.606Z,95.13
2018-06-08T21:24:49.516Z,94.27
2018-06-08T21:28:03.392Z,304.87
2018-06-08T21:31:01.118Z,126.50
2018-06-08T21:33:38.149Z,119.93
2018-06-08T21:36:13.903Z,87.90
2018-06-08T21:38:47.794Z,124.33
2018-06-08T21:41:25.759Z,103.23
2018-06-08T21:44:10.894Z,103.33
2018-06-08T21:46:44.248Z,96.13
2018-06-08T21:49:31.328Z,89.93
2018-06-08T21:52:23.055Z,94.93
2018-06-08T21:55:05.815Z,113.17
2018-06-08T21:57:38.123Z,96.27
2018-06-08T22:00:25.228Z,119.77
2018-06-08T22:03:19.669Z,99.67
2018-06-08T22:06:31.444Z,111.03
2018-06-08T22:09:17.671Z,95.03
2018-06-08T22:12:00.879Z,90.60
2018-06-08T22:14:45.302Z,166.77
2018-06-08T22:17:20.444Z,172.17
2018-06-08T22:19:54.951Z,184.37
2018-06-08T22:22:29.177Z,258.83
2018-06-08T22:25:17.983Z,147.97
2018-06-08T22:28:01.376Z,129.70
2018-06-08T22:30:47.652Z,112.13
2018-06-08T22:33:18.887Z,126.17
2018-06-08T22:35:54.431Z,115.57
2018-06-08T22:38:50.829Z,132.73
2018-06-08T22:47:41.011Z,115.43
2018-06-08T22:50:12.098Z,109.77
2018-06-08T22:52:48.141Z,123.70
2018-06-08T22:55:18.968Z,244.90
2018-06-08T22:58:00.970Z,144.17
2018-06-08T23:00:34.152Z,106.60
2018-06-08T23:03:04.349Z,101.87
2018-06-08T23:05:34.831Z,105.00
2018-06-08T23:08:08.102Z,140.30
2018-06-08T23:11:01.178Z,143.63
2018-06-08T23:13:36.057Z,123.50
2018-06-08T23:16:10.138Z,105.33
2018-06-08T23:18:40.304Z,184.73
2018-06-08T23:21:13.750Z,147.93
2018-06-08T23:23:48.961Z,150.00
2018-06-08T23:26:19.663Z,107.13
2018-06-08T23:28:50.655Z,119.80
2018-06-08T23:31:20.289Z,100.17
2018-06-08T23:34:19.087Z,97.67
2018-06-08T23:39:59.846Z,110.37
2018-06-08T23:42:30.340Z,100.00
2018-06-08T23:45:02.344Z,127.67
2018-06-08T23:47:34.118Z,143.03
2018-06-08T23:50:04.420Z,115.83
2018-06-08T23:52:41.607Z,118.97
2018-06-08T23:55:15.537Z,121.87
2018-06-08T23:57:48.602Z,121.80
